Time;durP1;ratioP1;P1;durP2;ratioP2;P2;SDS_P1;SDS_P2;PMS_P1;PMS_P2;Temp;Humidity;BMP_temperature;BMP_pressure;BME280_temperature;BME280_humidity;BME280_pressure;Samples;Min_cycle;Max_cycle;Signal;HPM_P1;HPM_P2
2023/02/19 10:41:01;;;;;;;4.67;1.05;;;;;;;12.29;76.21;99064.23;1722998;75;67354;-87
2023/02/19 10:43:41;;;;;;;4.22;1.27;;;;;;;9.53;76.71;99080.89;1708816;82;21080;-87
2023/02/19 10:46:29;;;;;;;1.62;0.65;;;;;;;9.53;76.71;99080.89;1714044;82;21081;-88
2023/02/19 10:49:07;;;;;;;1.80;0.73;;;;;;;8.83;76.81;99082.78;1708684;82;21111;-79
2023/02/19 10:51:41;;;;;;;1.62;0.50;;;;;;;8.54;76.94;99091.55;1709774;82;21077;-90
2023/02/19 10:54:30;;;;;;;1.90;0.80;;;;;;;8.56;77.17;99088.88;1678121;83;21129;-89
2023/02/19 10:57:31;;;;;;;4.65;0.90;;;;;;;8.42;75.57;99094.75;1676410;83;21711;-86
2023/02/19 11:00:02;;;;;;;1.62;0.72;;;;;;;8.21;75.66;99102.65;1549968;91;21201;-82
2023/02/19 11:02:43;;;;;;;3.35;0.80;;;;;;;7.98;75.44;99115.44;1565161;90;21200;-83
2023/02/19 11:05:19;;;;;;;4.62;0.98;;;;;;;7.84;73.98;99127.77;1550053;91;21685;-93
2023/02/19 11:07:55;;;;;;;1.62;1.25;;;;;;;7.49;73.96;99114.20;1567212;90;21567;-92
2023/02/19 11:51:37;;;;;;;5.05;1.37;;;;;;;6.49;70.19;99154.25;1401528;100;21593;-84
2023/02/19 11:54:21;;;;;;;1.72;0.70;;;;;;;6.55;69.67;99167.88;1422383;98;21193;-89
2023/02/19 11:57:29;;;;;;;1.20;0.60;;;;;;;6.61;69.65;99162.45;1421130;98;21211;-86
2023/02/19 12:00:26;;;;;;;;;;;;;;;6.83;69.47;99158.08;1435197;95;21181;-87
2023/02/19 12:03:25;;;;;;;1.07;0.50;;;;;;;7.03;69.00;99169.39;1441730;98;20189;-88
2023/02/19 12:06:21;;;;;;;2.52;0.80;;;;;;;7.19;68.90;99170.44;1494104;94;21097;-90
2023/02/19 12:09:02;;;;;;;0.55;0.40;;;;;;;7.32;68.57;99171.62;1496114;95;21168;-91
2023/02/19 12:11:52;;;;;;;0.70;0.42;;;;;;;7.70;68.17;99180.81;1508091;93;21741;-89
2023/02/19 12:14:45;;;;;;;1.15;0.50;;;;;;;7.53;67.74;99194.97;1546660;89;21582;-88
2023/02/19 12:17:38;;;;;;;0.85;0.60;;;;;;;7.51;67.98;99186.42;1589841;88;21133;-91
2023/02/19 12:20:29;;;;;;;1.75;0.75;;;;;;;7.93;67.47;99197.14;1588721;89;21975;-88
2023/02/19 12:23:29;;;;;;;0.93;0.60;;;;;;;8.39;68.09;99196.36;1644754;85;21107;-90
2023/02/19 12:26:26;;;;;;;0.98;0.42;;;;;;;8.13;66.61;99198.38;1656895;85;21014;-89
2023/02/19 12:29:20;;;;;;;1.45;0.70;;;;;;;8.05;66.64;99208.28;1656893;83;21096;-86
2023/02/19 12:32:39;;;;;;;0.65;0.50;;;;;;;7.68;66.66;99202.13;1656872;85;21611;-88
2023/02/19 12:35:40;;;;;;;3.15;0.93;;;;;;;7.91;67.01;99210.66;1659282;85;21527;-79
2023/02/19 12:38:16;;;;;;;1.20;0.50;;;;;;;8.12;66.49;99212.27;1658814;85;21626;-90
2023/02/19 12:41:11;;;;;;;1.47;0.57;;;;;;;9.00;67.04;99215.56;1655916;85;21126;-90
2023/02/19 12:43:52;;;;;;;0.78;0.50;;;;;;;9.62;67.00;99204.20;1658720;85;21201;-90
2023/02/19 12:46:24;;;;;;;1.00;0.50;;;;;;;10.11;66.06;99215.13;1655652;85;21213;-83
2023/02/19 12:49:05;;;;;;;1.00;0.40;;;;;;;10.50;66.04;99222.16;1656784;85;20986;-88
2023/02/19 12:51:56;;;;;;;1.70;0.37;;;;;;;11.05;65.96;99213.45;1685778;82;21509;-89
2023/02/19 12:54:40;;;;;;;3.67;0.70;;;;;;;11.68;66.07;99227.62;1657045;85;21650;-88
2023/02/19 12:57:20;;;;;;;1.75;0.60;;;;;;;12.00;65.51;99229.62;1657340;84;21076;-91
2023/02/19 13:00:25;;;;;;;0.93;0.40;;;;;;;12.13;64.85;99225.80;1659816;83;21607;-92
2023/02/19 13:03:00;;;;;;;1.55;0.50;;;;;;;12.27;64.69;99220.55;1659741;83;21614;-92
2023/02/19 13:05:49;;;;;;;1.95;1.05;;;;;;;12.24;63.64;99225.97;1653169;84;21663;-90
2023/02/19 13:08:27;;;;;;;0.62;0.40;;;;;;;11.38;63.00;99219.33;1657443;83;21076;-90
2023/02/19 13:11:09;;;;;;;2.08;0.60;;;;;;;11.21;62.77;99226.02;1659986;84;22368;-88
2023/02/19 13:13:51;;;;;;;1.47;0.60;;;;;;;11.43;62.78;99232.98;1655898;84;21437;-83
2023/02/19 13:16:19;;;;;;;1.32;0.60;;;;;;;11.12;60.85;99239.61;1663018;83;21751;-80
2023/02/19 13:18:57;;;;;;;1.22;0.60;;;;;;;10.78;61.43;99238.04;1659844;83;21247;-90
2023/02/19 13:24:31;;;;;;;4.35;0.60;;;;;;;10.66;60.44;99244.79;1661206;83;21090;-87
2023/02/19 13:27:19;;;;;;;1.25;0.70;;;;;;;10.86;60.37;99244.52;1658528;83;21126;-88
2023/02/19 13:30:34;;;;;;;1.20;0.65;;;;;;;11.22;60.09;99240.75;1661844;85;21136;-89
2023/02/19 13:33:54;;;;;;;;;;;;;;;;;;;;;
2023/02/19 13:36:19;;;;;;;2.00;0.90;;;;;;;12.53;58.09;99257.34;1694389;82;21041;-92
2023/02/19 13:38:50;;;;;;;1.80;0.70;;;;;;;12.20;58.04;99261.11;1702816;82;21081;-89
2023/02/19 13:41:32;;;;;;;1.62;0.70;;;;;;;12.06;57.66;99270.27;1701963;82;21466;-85
2023/02/19 13:44:09;;;;;;;0.75;0.40;;;;;;;11.99;57.26;99275.52;1690477;82;21080;-83
2023/02/19 13:46:48;;;;;;;1.85;0.70;;;;;;;11.86;56.92;99257.92;1706489;82;21081;-87
2023/02/19 13:49:45;;;;;;;1.10;0.50;;;;;;;11.63;56.99;99272.80;1695688;82;21116;-89
2023/02/19 13:52:32;;;;;;;2.47;0.62;;;;;;;11.81;56.51;99273.01;1678123;82;21128;-91
2023/02/19 13:55:48;;;;;;;1.32;0.60;;;;;;;12.16;56.68;99270.09;1703555;82;21052;-84
2023/02/19 13:59:16;;;;;;;3.83;0.80;;;;;;;12.59;56.52;99267.42;1698596;82;21114;-88
2023/02/19 14:02:21;;;;;;;1.90;0.80;;;;;;;12.64;55.27;99264.06;1699380;82;21418;-91
2023/02/19 14:05:04;;;;;;;2.75;0.80;;;;;;;12.88;54.97;99287.00;1705434;82;21101;-84
2023/02/19 14:10:12;;;;;;;2.10;0.72;;;;;;;13.94;54.75;99273.03;1679422;82;21599;-92
2023/02/19 14:12:45;;;;;;;3.15;1.05;;;;;;;14.25;51.91;99285.37;1703461;82;21053;-84
2023/02/19 14:15:42;;;;;;;1.80;0.95;;;;;;;14.32;51.00;99286.63;1706761;82;21145;-86
2023/02/19 14:18:51;;;;;;;;;;;;;;;14.42;50.52;99292.91;1702051;82;21128;-83
2023/02/19 14:21:44;;;;;;;1.30;0.98;;;;;;;14.33;49.45;99300.13;1709791;82;20148;-92
2023/02/19 14:24:17;;;;;;;2.30;0.70;;;;;;;14.21;49.70;99289.16;1702512;82;21112;-90
2023/02/19 14:26:48;;;;;;;3.70;0.80;;;;;;;14.01;48.47;99294.00;1709547;82;21113;-79
2023/02/19 14:29:28;;;;;;;1.92;1.00;;;;;;;13.99;48.17;99284.06;1708135;82;21094;-89
2023/02/19 14:31:59;;;;;;;1.40;0.80;;;;;;;14.30;47.74;99285.89;1703558;82;21056;-89
2023/02/19 14:34:28;;;;;;;3.25;0.80;;;;;;;14.48;47.37;99284.63;1683241;82;21016;-81
2023/02/19 14:37:01;;;;;;;3.77;1.00;;;;;;;14.54;46.87;99282.91;1705713;82;21117;-89
2023/02/19 14:39:36;;;;;;;1.85;0.88;;;;;;;14.92;47.13;99288.51;1703420;82;21053;-90
2023/02/19 14:42:16;;;;;;;1.67;0.95;;;;;;;15.24;46.99;99287.98;1717070;82;21050;-90
2023/02/19 14:44:56;;;;;;;1.35;1.00;;;;;;;15.43;45.72;99285.67;1708393;82;21131;-89
2023/02/19 14:47:29;;;;;;;2.25;1.12;;;;;;;15.38;45.59;99295.69;1710588;82;21069;-89
2023/02/19 14:50:07;;;;;;;2.75;0.90;;;;;;;15.37;45.32;99307.14;1708265;82;21077;-90
2023/02/19 14:52:45;;;;;;;0.88;0.70;;;;;;;15.27;45.30;99300.91;1703792;82;21680;-86
2023/02/19 14:55:26;;;;;;;0.68;0.65;;;;;;;14.98;44.16;99306.49;1703956;82;21584;-89
2023/02/19 14:57:59;;;;;;;2.65;0.93;;;;;;;14.93;44.13;99303.35;1701777;82;21549;-90
2023/02/19 15:00:36;;;;;;;1.70;0.82;;;;;;;15.18;43.25;99315.56;1684330;83;21081;-89
2023/02/19 15:03:06;;;;;;;2.02;1.10;;;;;;;14.94;43.50;99305.02;1704612;82;21120;-86
2023/02/19 15:05:36;;;;;;;3.22;1.10;;;;;;;15.15;43.60;99312.30;1698258;82;21187;-83
2023/02/19 15:08:13;;;;;;;1.62;1.02;;;;;;;15.31;43.34;99320.75;1703679;82;21101;-89
2023/02/19 15:10:43;;;;;;;2.75;1.22;;;;;;;15.00;42.75;99315.09;1694425;82;20994;-89
2023/02/19 15:13:22;;;;;;;3.90;1.62;;;;;;;15.07;42.85;99319.90;1698728;82;21060;-89
2023/02/19 15:15:49;;;;;;;1.80;0.85;;;;;;;14.90;42.72;99320.66;1696636;82;21070;-88
2023/02/19 15:18:35;;;;;;;1.85;1.05;;;;;;;15.20;42.57;99318.06;1699540;82;21137;-89
2023/02/19 15:21:02;;;;;;;2.05;0.85;;;;;;;15.00;41.41;99317.72;1693712;82;21149;-88
2023/02/19 15:23:34;;;;;;;1.20;0.50;;;;;;;14.39;41.88;99329.06;1702778;82;21021;-89
2023/02/19 15:26:03;;;;;;;1.65;0.60;;;;;;;14.53;41.69;99332.43;1701463;82;21101;-89
2023/02/19 15:28:33;;;;;;;1.65;0.60;;;;;;;13.31;40.37;99340.66;1700915;82;21629;-87
2023/02/19 15:31:06;;;;;;;1.20;0.60;;;;;;;11.98;40.51;99354.92;1699037;82;21182;-87
2023/02/19 15:33:37;;;;;;;2.15;0.60;;;;;;;10.98;39.74;99350.95;1705751;82;21121;-87
2023/02/19 15:36:13;;;;;;;1.55;0.68;;;;;;;9.88;39.68;99351.94;1700580;82;21077;-81
2023/02/19 15:38:45;;;;;;;1.57;0.55;;;;;;;8.89;39.35;99361.04;1699246;82;21111;-87
2023/02/19 15:41:21;;;;;;;1.90;0.50;;;;;;;7.59;39.07;99359.72;1698429;82;21537;-82
2023/02/19 15:44:01;;;;;;;1.32;0.68;;;;;;;6.56;39.16;99374.05;1699990;82;21081;-88
2023/02/19 15:46:38;;;;;;;2.75;0.60;;;;;;;5.79;39.03;99378.42;1696302;82;21068;-80
2023/02/19 15:49:39;;;;;;;1.37;0.65;;;;;;;5.11;39.17;99374.09;1683516;82;21088;-93
2023/02/19 15:52:17;;;;;;;2.17;0.65;;;;;;;4.63;39.49;99385.00;1703045;82;21068;-89
2023/02/19 15:55:24;;;;;;;1.75;0.53;;;;;;;4.22;39.49;99394.73;1688825;82;21071;-90
2023/02/19 15:58:16;;;;;;;2.05;0.60;;;;;;;3.73;39.53;99390.84;1696962;82;21082;-89
2023/02/19 16:01:09;;;;;;;2.50;0.90;;;;;;;3.30;39.90;99387.97;1703339;82;21108;-90
2023/02/19 16:03:41;;;;;;;3.10;0.82;;;;;;;3.00;40.08;99399.00;1661014;83;21121;-91
2023/02/19 16:06:14;;;;;;;3.92;0.80;;;;;;;2.73;40.28;99394.81;1694775;82;21085;-89
2023/02/19 16:08:45;;;;;;;2.72;0.90;;;;;;;2.56;40.26;99399.47;1708894;82;21528;-83
2023/02/19 16:11:50;;;;;;;4.47;0.90;;;;;;;2.36;40.74;99411.01;1701494;82;20987;-89
2023/02/19 16:14:35;;;;;;;2.25;0.85;;;;;;;2.20;40.89;99410.88;1705491;82;21577;-88
2023/02/19 16:17:13;;;;;;;2.37;0.68;;;;;;;2.04;41.00;99408.16;1699482;82;21155;-89
2023/02/19 16:19:51;;;;;;;4.15;0.62;;;;;;;1.92;41.61;99419.08;1706144;82;21006;-89
2023/02/19 16:22:28;;;;;;;2.35;0.90;;;;;;;1.81;41.38;99419.70;1700099;82;21129;-80
2023/02/19 16:25:04;;;;;;;2.07;0.70;;;;;;;1.72;41.81;99422.44;1698135;82;21366;-90
2023/02/19 16:27:59;;;;;;;;;;;;;;;;;;;;;
2023/02/19 16:30:24;;;;;;;2.47;0.62;;;;;;;1.61;42.32;99437.20;1689547;82;21635;-89
2023/02/19 16:32:53;;;;;;;1.50;0.70;;;;;;;1.56;42.34;99435.52;1702026;82;21109;-86
2023/02/19 16:35:40;;;;;;;5.65;0.80;;;;;;;1.52;42.57;99441.61;1700288;82;21092;-88
2023/02/19 16:38:13;;;;;;;6.55;1.20;;;;;;;1.47;42.68;99447.25;1688760;82;21081;-89
2023/02/19 16:40:52;;;;;;;1.35;0.70;;;;;;;1.45;42.99;99447.70;1708578;82;21069;-82
2023/02/19 16:43:54;;;;;;;1.95;0.85;;;;;;;1.40;43.27;99438.35;1698752;82;21068;-88
2023/02/19 16:46:12;;;;;;;2.62;0.82;;;;;;;1.33;43.38;99437.60;1702782;82;21522;-84
2023/02/19 16:48:48;;;;;;;3.45;0.82;;;;;;;1.30;43.36;99447.94;1689184;82;21096;-88
2023/02/19 16:51:23;;;;;;;5.95;1.70;;;;;;;1.26;43.83;99438.55;1705490;82;21038;-80
2023/02/19 16:53:50;;;;;;;3.58;1.12;;;;;;;1.24;43.99;99448.03;1704768;82;21048;-77
2023/02/19 16:56:21;;;;;;;4.22;1.52;;;;;;;1.23;44.11;99443.73;1708326;82;21077;-90
2023/02/19 16:58:52;;;;;;;4.03;1.47;;;;;;;1.17;44.51;99436.95;1650759;85;21664;-83
2023/02/19 17:01:23;;;;;;;4.28;1.37;;;;;;;1.15;44.39;99440.41;1712278;82;21134;-83
2023/02/19 17:03:53;;;;;;;2.50;1.30;;;;;;;1.11;44.65;99434.03;1717396;82;21235;-83
2023/02/19 17:06:20;;;;;;;6.97;1.77;;;;;;;1.09;45.16;99426.80;1708037;82;21093;-82
2023/02/19 17:08:47;;;;;;;3.72;1.05;;;;;;;1.09;44.99;99431.94;1719254;82;21505;-84
2023/02/19 17:11:17;;;;;;;3.12;1.42;;;;;;;1.08;45.16;99435.36;1704293;82;21068;-80
2023/02/19 17:13:55;;;;;;;3.85;1.40;;;;;;;1.06;45.27;99431.95;1699768;82;21217;-80
2023/02/19 17:16:38;;;;;;;6.85;1.20;;;;;;;1.06;45.66;99449.95;1711998;81;21121;-82
2023/02/19 17:19:10;;;;;;;2.30;1.02;;;;;;;1.05;45.80;99435.41;1688533;82;21054;-82
2023/02/19 17:21:46;;;;;;;5.25;1.20;;;;;;;1.02;46.00;99439.30;1657048;84;21623;-83
2023/02/19 17:24:18;;;;;;;6.22;1.12;;;;;;;1.04;46.17;99432.43;1659764;85;21123;-83
2023/02/19 17:26:43;;;;;;;3.65;1.00;;;;;;;1.07;46.45;99438.81;1659297;84;21082;-78
2023/02/19 17:29:21;;;;;;;5.00;0.78;;;;;;;1.08;46.60;99445.64;1619944;86;21099;-80
2023/02/19 17:31:52;;;;;;;2.00;0.75;;;;;;;1.06;46.74;99438.38;1604418;86;21215;-84
2023/02/19 17:34:14;;;;;;;4.50;0.88;;;;;;;1.03;46.81;99430.70;1600203;87;21101;-82
2023/02/19 17:36:45;;;;;;;4.22;1.10;;;;;;;1.03;46.97;99439.70;1592372;88;21028;-84
2023/02/19 17:39:23;;;;;;;5.20;1.20;;;;;;;1.04;46.78;99440.14;1637752;84;21110;-82
2023/02/19 17:41:50;;;;;;;2.87;1.05;;;;;;;1.03;47.19;99442.28;1656134;85;21049;-85
2023/02/19 17:44:19;;;;;;;4.45;0.82;;;;;;;1.05;47.35;99444.41;1618082;86;21571;-85
2023/02/19 17:46:49;;;;;;;3.12;1.12;;;;;;;1.03;47.82;99448.70;1600978;87;21117;-85
2023/02/19 17:49:15;;;;;;;2.15;0.95;;;;;;;1.07;47.71;99443.95;1604835;88;21085;-83
2023/02/19 17:51:42;;;;;;;3.27;1.10;;;;;;;1.09;48.02;99447.36;1660350;85;21440;-84
2023/02/19 17:54:08;;;;;;;4.20;0.93;;;;;;;1.11;48.12;99442.19;1649354;85;21069;-84
2023/02/19 17:56:35;;;;;;;3.40;0.75;;;;;;;1.13;48.19;99443.02;1605408;85;21102;-78
2023/02/19 17:59:05;;;;;;;4.67;1.60;;;;;;;1.15;48.21;99436.55;1666293;82;21059;-86
2023/02/19 18:01:32;;;;;;;6.42;1.87;;;;;;;1.18;48.70;99442.97;1688470;83;21652;-85
2023/02/19 18:03:58;;;;;;;4.72;1.82;;;;;;;1.19;48.68;99445.51;1690285;82;21547;-80
2023/02/19 18:06:27;;;;;;;6.72;1.77;;;;;;;1.19;49.24;99448.52;1695980;83;21029;-89
2023/02/19 18:09:10;;;;;;;7.65;2.42;;;;;;;1.20;48.97;99446.35;1694698;82;21602;-84
2023/02/19 18:11:35;;;;;;;6.80;2.45;;;;;;;1.19;49.35;99446.80;1689984;82;21028;-86
2023/02/19 18:14:02;;;;;;;5.73;2.27;;;;;;;1.21;49.47;99448.07;1691440;83;21002;-81
2023/02/19 18:16:29;;;;;;;5.50;2.47;;;;;;;1.20;49.53;99452.34;1693196;82;21536;-89
2023/02/19 18:18:57;;;;;;;7.50;2.50;;;;;;;1.21;49.94;99448.07;1695746;83;21117;-84
2023/02/19 18:21:24;;;;;;;6.97;2.30;;;;;;;1.24;50.13;99448.03;1688186;82;21088;-80
2023/02/19 18:23:51;;;;;;;4.97;1.92;;;;;;;1.26;49.97;99439.83;1688339;83;21097;-82
2023/02/19 18:26:20;;;;;;;6.47;2.62;;;;;;;1.28;49.95;99444.53;1687327;82;22141;-84
2023/02/19 18:28:51;;;;;;;4.30;1.95;;;;;;;1.30;50.26;99446.66;1687475;82;21014;-79
2023/02/19 18:31:15;;;;;;;7.92;2.10;;;;;;;1.36;50.57;99473.56;1675720;83;21066;-87
2023/02/19 18:33:43;;;;;;;11.47;2.00;;;;;;;1.40;50.94;99459.80;1675224;82;21034;-91
2023/02/19 18:36:26;;;;;;;;;;;;;;;;;;;;;
2023/02/19 18:40:04;;;;;;;;;;;;;;;;;;;;;
2023/02/19 18:42:01;;;;;;;7.67;2.08;;;;;;;1.50;51.42;99461.36;1589277;88;21049;-81
2023/02/19 18:44:32;;;;;;;6.72;1.90;;;;;;;1.58;51.54;99444.97;1584802;89;21496;-86
2023/02/19 18:47:19;;;;;;;7.25;1.82;;;;;;;1.62;51.61;99441.45;1605741;88;21137;-80
2023/02/19 18:50:07;;;;;;;;;;;;;;;;;;;;;
2023/02/19 18:52:52;;;;;;;6.20;1.92;;;;;;;1.70;52.25;99443.48;1531627;90;21067;-86
2023/02/19 18:58:30;;;;;;;;;;;;;;;;;;;;;
2023/02/19 19:03:42;;;;;;;7.17;1.55;;;;;;;1.83;53.33;99435.98;1536821;90;21561;-85
2023/02/19 19:06:07;;;;;;;7.50;1.90;;;;;;;1.84;53.68;99437.67;1498805;94;21116;-85
2023/02/19 19:08:34;;;;;;;7.25;2.08;;;;;;;1.84;53.33;99426.08;1499928;94;21119;-84
2023/02/19 19:11:01;;;;;;;5.65;1.80;;;;;;;1.86;53.50;99423.05;1523295;93;21109;-80
2023/02/19 19:13:27;;;;;;;7.08;1.67;;;;;;;1.88;53.63;99429.04;1527538;93;21645;-86
2023/02/19 19:15:59;;;;;;;7.05;1.70;;;;;;;1.89;53.90;99433.30;1530031;90;21048;-85
2023/02/19 19:18:30;;;;;;;6.62;2.12;;;;;;;1.91;54.09;99435.42;1568551;90;21531;-79
2023/02/19 19:21:01;;;;;;;4.60;1.87;;;;;;;1.94;54.09;99423.78;1567835;90;21144;-83
2023/02/19 19:23:25;;;;;;;6.72;1.67;;;;;;;1.96;54.36;99426.31;1569089;89;21040;-83
2023/02/19 19:25:53;;;;;;;6.20;1.42;;;;;;;1.99;54.67;99419.41;1572272;90;21864;-85
2023/02/19 19:28:23;;;;;;;6.47;1.67;;;;;;;2.07;55.15;99415.83;1566742;90;21123;-82
2023/02/19 19:30:52;;;;;;;5.10;1.70;;;;;;;2.11;54.84;99426.50;1569522;89;21048;-85
2023/02/19 19:33:22;;;;;;;6.65;1.70;;;;;;;2.15;55.24;99416.55;1568464;90;21198;-83
2023/02/19 19:35:49;;;;;;;4.30;1.30;;;;;;;2.18;55.04;99408.76;1567178;90;21130;-82
2023/02/19 19:38:15;;;;;;;6.95;1.70;;;;;;;2.19;55.63;99415.63;1576206;89;21488;-86
2023/02/19 19:40:44;;;;;;;5.03;1.57;;;;;;;2.20;55.72;99419.89;1574201;90;21001;-84
2023/02/19 19:43:19;;;;;;;5.87;1.32;;;;;;;2.21;55.73;99417.72;1573617;89;21146;-86
2023/02/19 19:45:45;;;;;;;8.48;1.80;;;;;;;2.24;55.89;99434.40;1576122;89;21160;-78
2023/02/19 19:48:12;;;;;;;4.85;1.55;;;;;;;2.27;55.99;99426.64;1574374;87;21086;-84
2023/02/19 19:50:39;;;;;;;9.55;1.85;;;;;;;2.29;56.17;99431.31;1651255;84;21604;-84
2023/02/19 19:53:05;;;;;;;5.08;1.27;;;;;;;2.31;56.31;99417.97;1670401;84;21045;-85
2023/02/19 19:55:35;;;;;;;8.53;1.87;;;;;;;2.32;56.64;99429.12;1698545;82;21097;-85
2023/02/19 19:58:01;;;;;;;7.62;1.95;;;;;;;2.32;57.00;99419.66;1708842;82;21552;-84
2023/02/19 20:00:28;;;;;;;6.80;1.37;;;;;;;2.33;56.93;99421.37;1708052;82;21073;-86
2023/02/19 20:02:55;;;;;;;7.33;1.80;;;;;;;2.35;57.05;99418.34;1709664;82;21101;-77
2023/02/19 20:05:28;;;;;;;5.90;1.60;;;;;;;2.38;57.27;99429.87;1711979;82;21394;-85
2023/02/19 20:07:54;;;;;;;5.80;1.45;;;;;;;2.40;57.40;99413.92;1709324;82;21383;-85
2023/02/19 20:10:27;;;;;;;4.55;1.22;;;;;;;2.45;57.81;99410.83;1706829;82;21144;-85
2023/02/19 20:15:51;;;;;;;7.72;1.55;;;;;;;2.54;57.87;99396.06;1495116;92;21676;-81
2023/02/19 20:18:24;;;;;;;5.47;1.50;;;;;;;2.55;58.47;99404.19;1500493;93;21035;-85
2023/02/19 20:20:51;;;;;;;3.37;1.07;;;;;;;2.59;58.34;99407.14;1500682;93;21101;-77
2023/02/19 20:35:27;;;;;;;5.58;1.12;;;;;;;2.70;59.22;99394.88;1269173;111;21140;-83
2023/02/19 20:38:53;;;;;;;4.28;1.45;;;;;;;2.76;59.62;99398.61;1256439;111;21790;-79
2023/02/19 20:41:24;;;;;;;4.03;1.35;;;;;;;2.78;60.17;99391.70;1257552;111;21202;-84
2023/02/19 20:43:53;;;;;;;5.20;1.25;;;;;;;2.80;59.98;99365.88;1253926;112;21305;-77
2023/02/19 20:46:20;;;;;;;4.72;1.20;;;;;;;2.81;60.11;99385.20;1254390;112;21214;-79
2023/02/19 20:48:49;;;;;;;4.07;1.23;;;;;;;2.85;60.78;99398.41;1252955;113;21226;-85
2023/02/19 20:51:21;;;;;;;7.90;1.55;;;;;;;2.84;60.92;99390.28;1251660;113;22033;-86
2023/02/19 20:53:49;;;;;;;6.55;0.95;;;;;;;2.78;60.79;99380.10;1306772;107;21185;-84
2023/02/19 20:56:15;;;;;;;4.75;1.40;;;;;;;2.79;61.04;99390.81;1333679;105;21169;-86
2023/02/19 20:58:42;;;;;;;2.08;0.80;;;;;;;2.79;61.63;99393.39;1333060;106;21665;-82
2023/02/19 21:01:10;;;;;;;2.40;1.10;;;;;;;2.83;61.44;99402.78;1334949;106;21203;-85
2023/02/19 21:03:37;;;;;;;5.47;1.40;;;;;;;2.84;61.72;99416.06;1353947;103;21078;-83
2023/02/19 21:06:03;;;;;;;4.42;1.10;;;;;;;2.79;61.66;99392.10;1409890;96;21121;-84
2023/02/19 21:08:30;;;;;;;3.37;1.13;;;;;;;2.77;62.20;99406.75;1516711;87;21074;-84
2023/02/19 21:10:58;;;;;;;5.50;1.27;;;;;;;2.74;62.01;99396.95;1612276;87;21748;-85
2023/02/19 21:13:25;;;;;;;5.25;1.42;;;;;;;2.73;62.43;99392.23;1612410;87;21113;-82
2023/02/19 21:15:51;;;;;;;7.17;1.10;;;;;;;2.74;62.65;99393.92;1610517;87;21111;-85
2023/02/19 21:18:18;;;;;;;7.62;1.47;;;;;;;2.78;62.84;99395.58;1610468;87;21012;-85
2023/02/19 21:20:45;;;;;;;5.00;1.45;;;;;;;2.80;62.99;99378.35;1657094;83;21051;-85
2023/02/19 21:23:12;;;;;;;4.33;1.50;;;;;;;2.85;63.19;99391.97;1695215;83;20984;-86
2023/02/19 21:25:39;;;;;;;6.45;1.80;;;;;;;2.89;63.36;99382.46;1710287;82;21036;-84
2023/02/19 21:28:07;;;;;;;5.62;1.25;;;;;;;2.94;63.34;99401.69;1718621;82;21009;-84
2023/02/19 21:30:34;;;;;;;4.90;1.10;;;;;;;2.96;63.53;99432.16;1691068;82;21107;-85
2023/02/19 21:33:02;;;;;;;4.33;1.20;;;;;;;2.97;63.84;99417.09;1722571;82;21102;-85
2023/02/19 21:35:28;;;;;;;6.00;1.15;;;;;;;2.98;63.76;99420.09;1722464;82;21541;-85
2023/02/19 21:37:56;;;;;;;5.05;1.10;;;;;;;3.01;63.98;99412.29;1716303;82;21002;-85
2023/02/19 21:40:24;;;;;;;2.27;0.93;;;;;;;3.01;64.27;99436.34;1723745;82;21040;-86
2023/02/19 21:42:51;;;;;;;3.20;1.20;;;;;;;3.05;64.26;99417.78;1718775;82;21570;-84
2023/02/19 21:45:17;;;;;;;5.67;1.60;;;;;;;3.00;64.33;99418.34;1715122;82;20991;-85
2023/02/19 21:47:44;;;;;;;6.40;1.00;;;;;;;3.00;64.45;99419.63;1722955;80;21389;-85
2023/02/19 21:50:14;;;;;;;3.60;1.07;;;;;;;3.01;64.69;99413.58;1725228;82;21104;-77
2023/02/19 21:52:41;;;;;;;2.75;0.80;;;;;;;2.98;64.95;99410.62;1684003;84;21610;-77
2023/02/19 21:55:10;;;;;;;3.00;0.95;;;;;;;2.99;65.11;99414.05;1715500;82;21616;-84
2023/02/19 21:57:36;;;;;;;5.87;1.07;;;;;;;2.94;65.10;99403.84;1711193;82;21542;-85
2023/02/19 22:00:06;;;;;;;9.35;1.40;;;;;;;2.95;65.16;99418.88;1710298;81;20958;-84
2023/02/19 22:02:33;;;;;;;6.58;1.42;;;;;;;2.91;65.26;99421.52;1710838;82;21148;-85
2023/02/19 22:05:01;;;;;;;4.22;1.15;;;;;;;2.88;65.44;99440.05;1714151;82;21096;-86
2023/02/19 22:07:29;;;;;;;5.45;1.37;;;;;;;2.87;65.47;99418.58;1710386;82;21105;-86
2023/02/19 22:09:56;;;;;;;5.58;0.88;;;;;;;2.88;65.64;99420.27;1675116;84;21121;-85
2023/02/19 22:12:23;;;;;;;4.90;0.88;;;;;;;2.89;65.80;99417.27;1650246;85;21065;-85
2023/02/19 22:14:50;;;;;;;5.17;1.02;;;;;;;2.89;66.00;99418.12;1628654;85;21107;-84
2023/02/19 22:17:16;;;;;;;;;;;;;;;2.91;66.42;99390.98;1668936;85;21059;-85
2023/02/19 22:19:43;;;;;;;5.33;1.15;;;;;;;2.91;66.22;99438.28;1653340;85;20616;-85
2023/02/19 22:22:09;;;;;;;5.85;1.20;;;;;;;2.88;66.40;99416.40;1637742;85;21031;-86
2023/02/19 22:24:36;;;;;;;4.67;1.45;;;;;;;2.85;66.74;99422.91;1643103;86;21131;-82
2023/02/19 22:27:03;;;;;;;6.83;1.40;;;;;;;2.84;66.81;99416.06;1653280;85;21099;-85
2023/02/19 22:29:31;;;;;;;4.97;1.15;;;;;;;2.85;66.96;99425.48;1630565;85;21058;-84
2023/02/19 22:31:58;;;;;;;5.25;1.35;;;;;;;2.85;67.10;99428.52;1663890;84;21053;-83
2023/02/19 22:34:25;;;;;;;6.37;1.52;;;;;;;2.83;67.23;99438.88;1663960;85;21648;-84
2023/02/19 22:36:51;;;;;;;5.80;1.23;;;;;;;2.83;67.52;99434.13;1647314;85;21039;-85
2023/02/19 22:39:23;;;;;;;5.37;1.15;;;;;;;2.82;67.54;99459.08;1634779;87;21323;-85
2023/02/19 22:41:49;;;;;;;6.90;1.30;;;;;;;2.80;68.03;99435.08;1641653;86;21110;-85
2023/02/19 22:44:16;;;;;;;4.63;1.23;;;;;;;2.80;67.89;99437.66;1654763;85;21107;-84
2023/02/19 22:46:52;;;;;;;6.67;1.42;;;;;;;2.79;68.35;99442.83;1638826;86;21106;-84
2023/02/19 22:49:20;;;;;;;6.95;1.47;;;;;;;2.75;68.34;99430.89;1674948;84;21093;-84
2023/02/19 22:52:07;;;;;;;11.18;2.08;;;;;;;2.71;68.49;99433.95;1649970;85;22275;-85
2023/02/19 22:54:34;;;;;;;5.03;1.60;;;;;;;2.72;69.43;99443.41;1651066;85;21082;-84
2023/02/19 22:57:01;;;;;;;5.03;1.47;;;;;;;2.74;68.98;99413.70;1620043;87;21102;-85
2023/02/19 22:59:33;;;;;;;5.92;1.47;;;;;;;2.77;68.91;99405.91;1666543;85;21062;-86
2023/02/19 23:02:00;;;;;;;8.78;1.45;;;;;;;2.80;69.71;99435.08;1657889;85;21031;-84
2023/02/19 23:04:26;;;;;;;5.27;1.40;;;;;;;2.78;69.43;99425.67;1665528;85;21004;-83
2023/02/19 23:06:53;;;;;;;6.12;1.65;;;;;;;2.81;69.86;99414.84;1700474;82;21003;-85
2023/02/19 23:09:25;;;;;;;6.17;1.30;;;;;;;2.82;70.00;99450.05;1700824;82;21810;-86
2023/02/19 23:11:55;;;;;;;5.03;1.37;;;;;;;2.81;70.12;99423.87;1696766;82;21558;-85
2023/02/19 23:14:24;;;;;;;5.37;1.62;;;;;;;2.80;70.10;99422.19;1701496;82;21054;-84
2023/02/19 23:16:49;;;;;;;3.87;1.30;;;;;;;2.82;70.30;99433.29;1696355;82;21027;-77
2023/02/19 23:19:16;;;;;;;12.03;2.73;;;;;;;2.83;70.46;99442.75;1703684;82;21005;-80
2023/02/19 23:21:44;;;;;;;6.47;1.50;;;;;;;2.84;70.68;99443.14;1695019;82;21993;-84
2023/02/19 23:24:11;;;;;;;;;;;;;;;2.84;70.63;99416.06;1710086;82;21419;-85
2023/02/19 23:26:45;;;;;;;4.42;1.50;;;;;;;2.88;71.33;99450.37;1702921;82;20400;-84
2023/02/19 23:29:16;;;;;;;6.08;1.45;;;;;;;2.88;71.14;99440.05;1694255;82;21030;-84
2023/02/19 23:31:42;;;;;;;6.28;1.70;;;;;;;2.87;71.01;99434.05;1698354;82;20995;-84
2023/02/19 23:34:09;;;;;;;6.40;1.77;;;;;;;2.87;71.29;99454.69;1709144;82;21019;-84
2023/02/19 23:36:45;;;;;;;7.53;1.30;;;;;;;2.88;71.39;99435.73;1696902;82;21088;-84
2023/02/19 23:39:15;;;;;;;6.50;1.40;;;;;;;2.80;71.33;99426.05;1699648;82;21065;-80
2023/02/19 23:41:48;;;;;;;8.95;1.50;;;;;;;2.93;71.28;99437.39;1692413;82;21009;-85
2023/02/19 23:44:15;;;;;;;5.95;1.62;;;;;;;2.96;71.47;99433.45;1695693;82;21026;-85
2023/02/19 23:46:42;;;;;;;5.00;1.45;;;;;;;2.96;71.63;99432.16;1704407;82;21045;-85
2023/02/19 23:49:09;;;;;;;5.15;1.20;;;;;;;2.96;71.71;99434.75;1696139;82;21058;-85
2023/02/19 23:51:36;;;;;;;4.72;1.62;;;;;;;2.97;71.85;99437.72;1704038;82;20978;-85
2023/02/19 23:54:03;;;;;;;6.80;1.62;;;;;;;2.96;72.04;99436.87;1666892;84;21537;-85
2023/02/19 23:56:29;;;;;;;7.28;1.20;;;;;;;2.96;71.96;99434.75;1672953;84;21094;-84
2023/02/19 23:58:56;;;;;;;6.42;1.87;;;;;;;2.95;72.01;99426.61;1715038;82;21097;-85
